Mayfield, KS (67103)

6:28 PM CDT on August 26, 2016 (GMT -0500)
Wellington Middle School Area | | Change Station

Elev 1240 ft 37.27 °N, 97.40 °W | Updated 45 seconds ago

Clear
Clear
86.0 °F
Feels Like 93 °F
N
0.0
Wind Variable Wind from ENE
Gusts 0.0 mph

Today
High -- | Low -- °F
--% Chance of Precip.
Yesterday
High -- | Low -- °F
Precip. -- in
Pressure 29.94 in
Visibility 10.0 miles
Clouds Clear
Heat Index 93 °F
Dew Point 73 °F
Humidity 66%
Rainfall 0.40 in
Snow Depth Not available.
6:56 AM 8:06 PM
Waning Crescent, 30% visible
METAR KWLD 262254Z AUTO 16004KT 10SM CLR 29/20 A2998 RMK AO2 SLP139 T02940200
Pressure 29.94 in
Visibility 10.0 miles
Clouds Clear
Heat Index 93 °F
Dew Point 73 °F
Humidity 66%
Rainfall 0.40 in
Snow Depth Not available.
6:56 AM 8:06 PM
Waning Crescent, 30% visible
METAR KWLD 262254Z AUTO 16004KT 10SM CLR 29/20 A2998 RMK AO2 SLP139 T02940200

10-Day Weather Forecast

Almanac

Astronomy

Aug. 26, 2016 Rise Set
Actual Time
Civil Twilight
Nautical Twilight
Astronomical Twilight
Moon
Length of Visible Light
Length of Day
Tomorrow will be .
, % of the Moon is Illuminated

Today's Extremes

State Highs State Lows

Community

WunderPhotos

Upload Photos

1,935,254 photos uploaded!

WunderBlog® & News

Nearby

Air Quality

  Air Quality AQ Index Pollutant
Not available.

Snow Depth

Station Depth Elevation

Earthquake Activity

City Distance Mag. Time & Date
Minimum magnitude displayed is 2.5.

Coastal Water Temperatures

Place Temperature

Stations

Nearby Weather Stations

Station Location Temp. Windchill Dew Point Humidity Wind Precip. Elev Updated Type
                   

Watches & Warnings

There are currently no watches in effect.